ACA726 CYYZ-KLGA
Flight info
| Callsign | ACA726 |
|---|---|
| Flight time | 0h 58m |
| Altitude | 31000 |
| Route | KEPTA3 BMPAH DCT AEVON DCT AUDIL DCT RAHKS VADDR1 |
| Aircraft | B738/M-SDE2E3FGHIRWXY/LB1 |
Departure
| Time | 2026-05-05 03:02 |
|---|---|
| Airport | Toronto Pearson International Airport (CYYZ) |
Arrival
| Time | 2026-05-05 04:01 |
|---|---|
| Airport | LaGuardia Airport (KLGA) |
| Time | Latitude | Longitude | Altitude | Speed | Heading |
|---|---|---|---|---|---|
| 2026-05-05 02:31 | 43.68009 | -79.61473 | 560 ft | 0 kts | 317° |
| 2026-05-05 02:49 | 43.67994 | -79.61453 | 564 ft | 4 kts | 313° |
| 2026-05-05 02:49 | 43.67980 | -79.61432 | 566 ft | 4 kts | 315° |
| 2026-05-05 02:50 | 43.67961 | -79.61418 | 564 ft | 4 kts | 349° |
| 2026-05-05 02:50 | 43.67935 | -79.61417 | 566 ft | 4 kts | 12° |
| 2026-05-05 02:50 | 43.67925 | -79.61420 | 569 ft | 0 kts | 14° |
| 2026-05-05 02:53 | 43.67930 | -79.61417 | 568 ft | 3 kts | 17° |
| 2026-05-05 02:53 | 43.67944 | -79.61381 | 567 ft | 6 kts | 109° |
| 2026-05-05 02:53 | 43.67895 | -79.61364 | 565 ft | 9 kts | 186° |
| 2026-05-05 02:53 | 43.67836 | -79.61396 | 564 ft | 10 kts | 218° |
| 2026-05-05 02:54 | 43.67785 | -79.61461 | 564 ft | 10 kts | 223° |
| 2026-05-05 02:54 | 43.67733 | -79.61534 | 565 ft | 11 kts | 226° |
| 2026-05-05 02:54 | 43.67679 | -79.61613 | 569 ft | 11 kts | 226° |
| 2026-05-05 02:54 | 43.67621 | -79.61687 | 562 ft | 11 kts | 219° |
| 2026-05-05 02:55 | 43.67575 | -79.61744 | 569 ft | 0 kts | 228° |
| 2026-05-05 02:55 | 43.67575 | -79.61745 | 568 ft | 1 kts | 229° |
| 2026-05-05 02:55 | 43.67580 | -79.61756 | 568 ft | 2 kts | 338° |
| 2026-05-05 02:55 | 43.67629 | -79.61728 | 562 ft | 10 kts | 7° |
| 2026-05-05 02:56 | 43.67682 | -79.61786 | 562 ft | 14 kts | 316° |
| 2026-05-05 02:56 | 43.67788 | -79.61927 | 562 ft | 27 kts | 316° |
| 2026-05-05 02:56 | 43.67911 | -79.62063 | 565 ft | 23 kts | 340° |
| 2026-05-05 02:56 | 43.68040 | -79.62186 | 565 ft | 22 kts | 320° |
| 2026-05-05 02:57 | 43.68150 | -79.62333 | 561 ft | 22 kts | 317° |
| 2026-05-05 02:57 | 43.68262 | -79.62468 | 561 ft | 21 kts | 319° |
| 2026-05-05 02:57 | 43.68368 | -79.62601 | 561 ft | 20 kts | 316° |
| 2026-05-05 02:57 | 43.68464 | -79.62729 | 561 ft | 19 kts | 316° |
| 2026-05-05 02:58 | 43.68559 | -79.62853 | 563 ft | 18 kts | 316° |
| 2026-05-05 02:58 | 43.68651 | -79.62971 | 560 ft | 18 kts | 317° |
| 2026-05-05 02:58 | 43.68738 | -79.63087 | 564 ft | 17 kts | 316° |
| 2026-05-05 02:58 | 43.68825 | -79.63197 | 561 ft | 17 kts | 315° |
| 2026-05-05 02:59 | 43.68906 | -79.63306 | 562 ft | 16 kts | 317° |
| 2026-05-05 02:59 | 43.68985 | -79.63407 | 563 ft | 15 kts | 316° |
| 2026-05-05 02:59 | 43.69060 | -79.63506 | 568 ft | 15 kts | 316° |
| 2026-05-05 02:59 | 43.69130 | -79.63510 | 564 ft | 11 kts | 38° |
| 2026-05-05 03:00 | 43.69186 | -79.63439 | 570 ft | 11 kts | 38° |
| 2026-05-05 03:00 | 43.69257 | -79.63419 | 566 ft | 11 kts | 4° |
| 2026-05-05 03:00 | 43.69329 | -79.63417 | 564 ft | 10 kts | 354° |
| 2026-05-05 03:00 | 43.69391 | -79.63463 | 568 ft | 10 kts | 314° |
| 2026-05-05 03:01 | 43.69397 | -79.63530 | 564 ft | 6 kts | 233° |
| 2026-05-05 03:01 | 43.69366 | -79.63577 | 563 ft | 11 kts | 226° |
| 2026-05-05 03:01 | 43.69195 | -79.63824 | 566 ft | 70 kts | 226° |
| 2026-05-05 03:01 | 43.68702 | -79.64541 | 563 ft | 133 kts | 226° |
| 2026-05-05 03:02 | 43.67960 | -79.65649 | 702 ft | 174 kts | 227° |
| 2026-05-05 03:02 | 43.67154 | -79.66952 | 1449 ft | 177 kts | 228° |
| 2026-05-05 03:02 | 43.66448 | -79.68210 | 2481 ft | 158 kts | 232° |
| 2026-05-05 03:02 | 43.65781 | -79.69446 | 3013 ft | 169 kts | 234° |
| 2026-05-05 03:03 | 43.65093 | -79.70785 | 3695 ft | 168 kts | 233° |
| 2026-05-05 03:03 | 43.64157 | -79.71782 | 4301 ft | 185 kts | 202° |
| 2026-05-05 03:03 | 43.62759 | -79.71822 | 4715 ft | 220 kts | 175° |
| 2026-05-05 03:03 | 43.61280 | -79.70996 | 5370 ft | 242 kts | 155° |
| 2026-05-05 03:04 | 43.59906 | -79.69543 | 6140 ft | 253 kts | 148° |
| 2026-05-05 03:04 | 43.58529 | -79.67940 | 6743 ft | 266 kts | 147° |
| 2026-05-05 03:04 | 43.57106 | -79.66297 | 7410 ft | 275 kts | 148° |
| 2026-05-05 03:04 | 43.55574 | -79.64582 | 7939 ft | 289 kts | 148° |
| 2026-05-05 03:05 | 43.53988 | -79.62831 | 8700 ft | 295 kts | 148° |
| 2026-05-05 03:05 | 43.52377 | -79.61044 | 9522 ft | 300 kts | 144° |
| 2026-05-05 03:05 | 43.51119 | -79.58671 | 10215 ft | 319 kts | 115° |
| 2026-05-05 03:05 | 43.50732 | -79.55551 | 10530 ft | 349 kts | 86° |
| 2026-05-05 03:06 | 43.51295 | -79.52201 | 10857 ft | 367 kts | 72° |
| 2026-05-05 03:06 | 43.52072 | -79.48806 | 11503 ft | 374 kts | 73° |
| 2026-05-05 03:06 | 43.52726 | -79.45360 | 12254 ft | 378 kts | 83° |
| 2026-05-05 03:06 | 43.52688 | -79.41751 | 13049 ft | 378 kts | 102° |
| 2026-05-05 03:07 | 43.51875 | -79.38303 | 13728 ft | 378 kts | 120° |
| 2026-05-05 03:07 | 43.50647 | -79.35096 | 14410 ft | 380 kts | 122° |
| 2026-05-05 03:07 | 43.49378 | -79.31906 | 15097 ft | 383 kts | 123° |
| 2026-05-05 03:07 | 43.48081 | -79.28666 | 15792 ft | 386 kts | 123° |
| 2026-05-05 03:08 | 43.46783 | -79.25411 | 16467 ft | 390 kts | 123° |
| 2026-05-05 03:08 | 43.45491 | -79.22152 | 17127 ft | 394 kts | 123° |
| 2026-05-05 03:08 | 43.45049 | -79.21033 | 17354 ft | 395 kts | 123° |
| 2026-05-05 03:08 | 43.42856 | -79.15455 | 18374 ft | 401 kts | 123° |
| 2026-05-05 03:09 | 43.41524 | -79.12056 | 18913 ft | 406 kts | 123° |
| 2026-05-05 03:09 | 43.40172 | -79.08605 | 19437 ft | 411 kts | 123° |
| 2026-05-05 03:09 | 43.38808 | -79.05126 | 19966 ft | 415 kts | 122° |
| 2026-05-05 03:09 | 43.37449 | -79.01659 | 20546 ft | 418 kts | 122° |
| 2026-05-05 03:10 | 43.36061 | -78.98121 | 21078 ft | 422 kts | 122° |
| 2026-05-05 03:10 | 43.34659 | -78.94555 | 21579 ft | 426 kts | 122° |
| 2026-05-05 03:10 | 43.33235 | -78.90937 | 22089 ft | 430 kts | 122° |
| 2026-05-05 03:10 | 43.31804 | -78.87307 | 22587 ft | 434 kts | 122° |
| 2026-05-05 03:11 | 43.30354 | -78.83633 | 23091 ft | 438 kts | 122° |
| 2026-05-05 03:11 | 43.28911 | -78.79983 | 23523 ft | 442 kts | 122° |
| 2026-05-05 03:11 | 43.27434 | -78.76248 | 23961 ft | 444 kts | 122° |
| 2026-05-05 03:11 | 43.25952 | -78.72507 | 24437 ft | 446 kts | 122° |
| 2026-05-05 03:12 | 43.24464 | -78.68755 | 24881 ft | 448 kts | 122° |
| 2026-05-05 03:12 | 43.22969 | -78.64991 | 25309 ft | 450 kts | 122° |
| 2026-05-05 03:12 | 43.21483 | -78.61256 | 25737 ft | 452 kts | 122° |
| 2026-05-05 03:12 | 43.19952 | -78.57411 | 26134 ft | 455 kts | 122° |
| 2026-05-05 03:13 | 43.18446 | -78.53637 | 26511 ft | 458 kts | 122° |
| 2026-05-05 03:13 | 43.16914 | -78.49801 | 26924 ft | 460 kts | 122° |
| 2026-05-05 03:13 | 43.15372 | -78.45945 | 27445 ft | 459 kts | 122° |
| 2026-05-05 03:13 | 43.13838 | -78.42109 | 28039 ft | 456 kts | 122° |
| 2026-05-05 03:14 | 43.12314 | -78.38306 | 28598 ft | 455 kts | 122° |
| 2026-05-05 03:14 | 43.10790 | -78.34509 | 29086 ft | 454 kts | 122° |
| 2026-05-05 03:14 | 43.09283 | -78.30761 | 29554 ft | 454 kts | 122° |
| 2026-05-05 03:14 | 43.07753 | -78.26963 | 30017 ft | 453 kts | 122° |
| 2026-05-05 03:15 | 43.06230 | -78.23185 | 30444 ft | 452 kts | 122° |
| 2026-05-05 03:15 | 43.04713 | -78.19426 | 30855 ft | 451 kts | 122° |
| 2026-05-05 03:15 | 43.03188 | -78.15653 | 31101 ft | 454 kts | 122° |
| 2026-05-05 03:16 | 43.00122 | -78.08085 | 31062 ft | 455 kts | 122° |
| 2026-05-05 03:16 | 42.97076 | -78.00576 | 30807 ft | 454 kts | 122° |
| 2026-05-05 03:17 | 42.93964 | -77.92939 | 30754 ft | 470 kts | 122° |
| 2026-05-05 03:17 | 42.92495 | -77.88879 | 30736 ft | 481 kts | 114° |
| 2026-05-05 03:17 | 42.91495 | -77.84479 | 30751 ft | 490 kts | 104° |
| 2026-05-05 03:18 | 42.90856 | -77.75090 | 30746 ft | 503 kts | 92° |
| 2026-05-05 03:18 | 42.90723 | -77.65563 | 30723 ft | 506 kts | 91° |
| 2026-05-05 03:19 | 42.90448 | -77.51172 | 30742 ft | 506 kts | 92° |
| 2026-05-05 03:19 | 42.90200 | -77.41593 | 30740 ft | 505 kts | 92° |
| 2026-05-05 03:20 | 42.89936 | -77.32023 | 30743 ft | 502 kts | 92° |
| 2026-05-05 03:20 | 42.89671 | -77.22555 | 30750 ft | 500 kts | 92° |
| 2026-05-05 03:21 | 42.89399 | -77.13072 | 30745 ft | 499 kts | 92° |
| 2026-05-05 03:21 | 42.89123 | -77.03649 | 30748 ft | 498 kts | 92° |
| 2026-05-05 03:22 | 42.88837 | -76.94188 | 30758 ft | 499 kts | 92° |
| 2026-05-05 03:22 | 42.88542 | -76.84706 | 30739 ft | 500 kts | 92° |
| 2026-05-05 03:23 | 42.88242 | -76.75282 | 30747 ft | 500 kts | 92° |
| 2026-05-05 03:23 | 42.87931 | -76.65775 | 30748 ft | 501 kts | 92° |
| 2026-05-05 03:24 | 42.87615 | -76.56326 | 30753 ft | 502 kts | 92° |
| 2026-05-05 03:24 | 42.87172 | -76.46800 | 30742 ft | 502 kts | 99° |
| 2026-05-05 03:25 | 42.85208 | -76.37777 | 30756 ft | 498 kts | 116° |
| 2026-05-05 03:25 | 42.82290 | -76.29208 | 30763 ft | 498 kts | 117° |
| 2026-05-05 03:26 | 42.79385 | -76.20695 | 30741 ft | 497 kts | 116° |
| 2026-05-05 03:26 | 42.76513 | -76.12144 | 30756 ft | 495 kts | 116° |
| 2026-05-05 03:27 | 42.73663 | -76.03607 | 30768 ft | 493 kts | 116° |
| 2026-05-05 03:27 | 42.70841 | -75.95176 | 30775 ft | 491 kts | 116° |
| 2026-05-05 03:28 | 42.68007 | -75.86745 | 30796 ft | 489 kts | 116° |
| 2026-05-05 03:28 | 42.65176 | -75.78350 | 30799 ft | 488 kts | 116° |
| 2026-05-05 03:29 | 42.62352 | -75.70005 | 30804 ft | 487 kts | 116° |
| 2026-05-05 03:29 | 42.59511 | -75.61635 | 30806 ft | 487 kts | 116° |
| 2026-05-05 03:30 | 42.56661 | -75.53262 | 30808 ft | 488 kts | 116° |
| 2026-05-05 03:30 | 42.53821 | -75.44945 | 30810 ft | 488 kts | 116° |
| 2026-05-05 03:31 | 42.50948 | -75.36555 | 30809 ft | 489 kts | 116° |
| 2026-05-05 03:31 | 42.48086 | -75.28219 | 30813 ft | 490 kts | 116° |
| 2026-05-05 03:32 | 42.45676 | -75.21263 | 30820 ft | 490 kts | 117° |
| 2026-05-05 03:32 | 42.42170 | -75.11651 | 30828 ft | 489 kts | 118° |
| 2026-05-05 03:33 | 42.39635 | -75.04788 | 30837 ft | 490 kts | 117° |
| 2026-05-05 03:33 | 42.36132 | -74.95265 | 30537 ft | 478 kts | 117° |
| 2026-05-05 03:34 | 42.35140 | -74.92564 | 30314 ft | 472 kts | 118° |
| 2026-05-05 03:34 | 42.33689 | -74.88614 | 29857 ft | 467 kts | 118° |
| 2026-05-05 03:34 | 42.32250 | -74.84704 | 29358 ft | 462 kts | 118° |
| 2026-05-05 03:34 | 42.30841 | -74.80884 | 28890 ft | 457 kts | 118° |
| 2026-05-05 03:35 | 42.29424 | -74.77045 | 28411 ft | 452 kts | 118° |
| 2026-05-05 03:35 | 42.28025 | -74.73264 | 27954 ft | 448 kts | 118° |
| 2026-05-05 03:35 | 42.26632 | -74.69501 | 27481 ft | 444 kts | 118° |
| 2026-05-05 03:35 | 42.25252 | -74.65778 | 27002 ft | 441 kts | 118° |
| 2026-05-05 03:36 | 42.23898 | -74.62131 | 26558 ft | 437 kts | 118° |
| 2026-05-05 03:36 | 42.22540 | -74.58474 | 26106 ft | 434 kts | 118° |
| 2026-05-05 03:36 | 42.21189 | -74.54845 | 25675 ft | 431 kts | 118° |
| 2026-05-05 03:36 | 42.19843 | -74.51233 | 25227 ft | 429 kts | 118° |
| 2026-05-05 03:37 | 42.18500 | -74.47639 | 24796 ft | 426 kts | 118° |
| 2026-05-05 03:37 | 42.17185 | -74.44127 | 24376 ft | 423 kts | 118° |
| 2026-05-05 03:37 | 42.15852 | -74.40572 | 23925 ft | 422 kts | 118° |
| 2026-05-05 03:37 | 42.14533 | -74.37053 | 23472 ft | 420 kts | 118° |
| 2026-05-05 03:38 | 42.13220 | -74.33549 | 22964 ft | 418 kts | 118° |
| 2026-05-05 03:38 | 42.11924 | -74.30101 | 22491 ft | 415 kts | 118° |
| 2026-05-05 03:38 | 42.10596 | -74.26663 | 22048 ft | 411 kts | 122° |
| 2026-05-05 03:38 | 42.09072 | -74.23433 | 21626 ft | 406 kts | 126° |
| 2026-05-05 03:39 | 42.07479 | -74.20296 | 21190 ft | 403 kts | 127° |
| 2026-05-05 03:39 | 42.05889 | -74.17202 | 20757 ft | 401 kts | 127° |
| 2026-05-05 03:39 | 42.04311 | -74.14117 | 20327 ft | 398 kts | 127° |
| 2026-05-05 03:39 | 42.02753 | -74.11044 | 19898 ft | 396 kts | 127° |
| 2026-05-05 03:40 | 42.01226 | -74.08022 | 19484 ft | 394 kts | 127° |
| 2026-05-05 03:40 | 41.99692 | -74.04975 | 19055 ft | 392 kts | 127° |
| 2026-05-05 03:40 | 41.98168 | -74.01943 | 18636 ft | 390 kts | 127° |
| 2026-05-05 03:40 | 41.96647 | -73.98918 | 18190 ft | 389 kts | 127° |
| 2026-05-05 03:41 | 41.95133 | -73.95908 | 17726 ft | 387 kts | 127° |
| 2026-05-05 03:41 | 41.93646 | -73.92952 | 17282 ft | 385 kts | 127° |
| 2026-05-05 03:41 | 41.92145 | -73.89975 | 16849 ft | 383 kts | 127° |
| 2026-05-05 03:41 | 41.90658 | -73.87029 | 16437 ft | 380 kts | 127° |
| 2026-05-05 03:42 | 41.89009 | -73.84310 | 16062 ft | 370 kts | 144° |
| 2026-05-05 03:42 | 41.86845 | -73.82607 | 15723 ft | 356 kts | 164° |
| 2026-05-05 03:42 | 41.84479 | -73.81869 | 15336 ft | 344 kts | 181° |
| 2026-05-05 03:42 | 41.82111 | -73.81832 | 14970 ft | 338 kts | 186° |
| 2026-05-05 03:43 | 41.79791 | -73.81907 | 14586 ft | 336 kts | 186° |
| 2026-05-05 03:43 | 41.77447 | -73.81993 | 14193 ft | 335 kts | 186° |
| 2026-05-05 03:43 | 41.75116 | -73.82063 | 13812 ft | 334 kts | 186° |
| 2026-05-05 03:43 | 41.72794 | -73.82116 | 13394 ft | 332 kts | 186° |
| 2026-05-05 03:44 | 41.70514 | -73.82158 | 12985 ft | 331 kts | 185° |
| 2026-05-05 03:44 | 41.68215 | -73.82196 | 12587 ft | 329 kts | 185° |
| 2026-05-05 03:44 | 41.65930 | -73.82312 | 12199 ft | 324 kts | 191° |
| 2026-05-05 03:44 | 41.63727 | -73.82788 | 11846 ft | 318 kts | 195° |
| 2026-05-05 03:45 | 41.61593 | -73.83377 | 11472 ft | 315 kts | 196° |
| 2026-05-05 03:45 | 41.59451 | -73.83984 | 11101 ft | 313 kts | 196° |
| 2026-05-05 03:45 | 41.57319 | -73.84574 | 10716 ft | 311 kts | 195° |
| 2026-05-05 03:45 | 41.55214 | -73.85140 | 10520 ft | 304 kts | 195° |
| 2026-05-05 03:46 | 41.53172 | -73.85677 | 10367 ft | 295 kts | 195° |
| 2026-05-05 03:46 | 41.51187 | -73.86193 | 10245 ft | 285 kts | 195° |
| 2026-05-05 03:46 | 41.49265 | -73.86690 | 10119 ft | 277 kts | 195° |
| 2026-05-05 03:46 | 41.47399 | -73.87170 | 10003 ft | 269 kts | 195° |
| 2026-05-05 03:47 | 41.45579 | -73.87639 | 9796 ft | 265 kts | 196° |
| 2026-05-05 03:47 | 41.43762 | -73.87816 | 9492 ft | 271 kts | 174° |
| 2026-05-05 03:47 | 41.41999 | -73.86876 | 9259 ft | 276 kts | 154° |
| 2026-05-05 03:47 | 41.40394 | -73.85449 | 8995 ft | 277 kts | 149° |
| 2026-05-05 03:48 | 41.38827 | -73.83970 | 8710 ft | 276 kts | 150° |
| 2026-05-05 03:48 | 41.37256 | -73.82507 | 8442 ft | 274 kts | 150° |
| 2026-05-05 03:48 | 41.35687 | -73.81068 | 8171 ft | 273 kts | 151° |
| 2026-05-05 03:48 | 41.34117 | -73.79638 | 7927 ft | 271 kts | 151° |
| 2026-05-05 03:49 | 41.32575 | -73.78239 | 7749 ft | 272 kts | 151° |
| 2026-05-05 03:49 | 41.30999 | -73.76813 | 7564 ft | 275 kts | 151° |
| 2026-05-05 03:49 | 41.29400 | -73.75363 | 7363 ft | 277 kts | 151° |
| 2026-05-05 03:49 | 41.27804 | -73.73921 | 7141 ft | 276 kts | 151° |
| 2026-05-05 03:50 | 41.26241 | -73.72505 | 6947 ft | 274 kts | 151° |
| 2026-05-05 03:50 | 41.24671 | -73.71088 | 6763 ft | 272 kts | 151° |
| 2026-05-05 03:50 | 41.23106 | -73.69677 | 6554 ft | 271 kts | 152° |
| 2026-05-05 03:50 | 41.21543 | -73.68268 | 6360 ft | 269 kts | 152° |
| 2026-05-05 03:51 | 41.20017 | -73.66889 | 6172 ft | 268 kts | 152° |
| 2026-05-05 03:51 | 41.18483 | -73.65506 | 5977 ft | 266 kts | 152° |
| 2026-05-05 03:51 | 41.16957 | -73.64135 | 5781 ft | 264 kts | 152° |
| 2026-05-05 03:51 | 41.15438 | -73.62769 | 5599 ft | 263 kts | 151° |
| 2026-05-05 03:52 | 41.13941 | -73.61379 | 5387 ft | 261 kts | 152° |
| 2026-05-05 03:52 | 41.12326 | -73.60378 | 5203 ft | 252 kts | 176° |
| 2026-05-05 03:52 | 41.10623 | -73.60467 | 5044 ft | 241 kts | 200° |
| 2026-05-05 03:52 | 41.09198 | -73.61474 | 4882 ft | 232 kts | 218° |
| 2026-05-05 03:53 | 41.07874 | -73.62652 | 4731 ft | 224 kts | 216° |
| 2026-05-05 03:53 | 41.06595 | -73.63735 | 4559 ft | 213 kts | 216° |
| 2026-05-05 03:53 | 41.05376 | -73.64758 | 4381 ft | 202 kts | 215° |
| 2026-05-05 03:53 | 41.04208 | -73.65737 | 4224 ft | 197 kts | 215° |
| 2026-05-05 03:54 | 41.03055 | -73.66722 | 4063 ft | 196 kts | 216° |
| 2026-05-05 03:54 | 41.01903 | -73.67712 | 4012 ft | 199 kts | 215° |
| 2026-05-05 03:54 | 41.00761 | -73.68674 | 3998 ft | 197 kts | 215° |
| 2026-05-05 03:54 | 40.99608 | -73.69633 | 3984 ft | 195 kts | 214° |
| 2026-05-05 03:55 | 40.98457 | -73.70588 | 3991 ft | 197 kts | 214° |
| 2026-05-05 03:55 | 40.97293 | -73.71551 | 3996 ft | 198 kts | 214° |
| 2026-05-05 03:55 | 40.96129 | -73.72514 | 3965 ft | 197 kts | 214° |
| 2026-05-05 03:55 | 40.94958 | -73.73482 | 3750 ft | 199 kts | 214° |
| 2026-05-05 03:56 | 40.93793 | -73.74445 | 3480 ft | 194 kts | 214° |
| 2026-05-05 03:56 | 40.92677 | -73.75368 | 3231 ft | 185 kts | 213° |
| 2026-05-05 03:56 | 40.91606 | -73.76253 | 2996 ft | 178 kts | 213° |
| 2026-05-05 03:56 | 40.90584 | -73.77099 | 2768 ft | 170 kts | 213° |
| 2026-05-05 03:57 | 40.89592 | -73.77920 | 2533 ft | 164 kts | 213° |
| 2026-05-05 03:57 | 40.88643 | -73.78705 | 2322 ft | 157 kts | 212° |
| 2026-05-05 03:57 | 40.87754 | -73.79441 | 2119 ft | 145 kts | 212° |
| 2026-05-05 03:57 | 40.86933 | -73.80127 | 1910 ft | 133 kts | 213° |
| 2026-05-05 03:58 | 40.86190 | -73.80777 | 1758 ft | 121 kts | 213° |
| 2026-05-05 03:58 | 40.85517 | -73.81361 | 1682 ft | 116 kts | 212° |
| 2026-05-05 03:58 | 40.84825 | -73.81867 | 1592 ft | 113 kts | 209° |
| 2026-05-05 03:58 | 40.84132 | -73.82419 | 1411 ft | 120 kts | 212° |
| 2026-05-05 03:59 | 40.83413 | -73.83017 | 1221 ft | 124 kts | 212° |
| 2026-05-05 03:59 | 40.82681 | -73.83635 | 1015 ft | 127 kts | 211° |
| 2026-05-05 03:59 | 40.81931 | -73.84257 | 823 ft | 128 kts | 211° |
| 2026-05-05 03:59 | 40.81156 | -73.84917 | 640 ft | 136 kts | 211° |
| 2026-05-05 04:00 | 40.80354 | -73.85561 | 497 ft | 136 kts | 213° |
| 2026-05-05 04:00 | 40.79542 | -73.86248 | 308 ft | 142 kts | 210° |
| 2026-05-05 04:00 | 40.78716 | -73.86926 | 100 ft | 138 kts | 211° |
| 2026-05-05 04:00 | 40.77943 | -73.87568 | 20 ft | 119 kts | 210° |
| 2026-05-05 04:01 | 40.77458 | -73.87965 | 22 ft | 36 kts | 210° |
| 2026-05-05 04:01 | 40.77353 | -73.87994 | 21 ft | 13 kts | 185° |
| 2026-05-05 04:01 | 40.77301 | -73.87961 | 18 ft | 9 kts | 76° |
| 2026-05-05 04:01 | 40.77348 | -73.87906 | 18 ft | 9 kts | 35° |
| 2026-05-05 04:02 | 40.77401 | -73.87861 | 19 ft | 9 kts | 33° |
| 2026-05-05 04:02 | 40.77453 | -73.87818 | 20 ft | 9 kts | 32° |
| 2026-05-05 04:02 | 40.77527 | -73.87757 | 18 ft | 8 kts | 32° |
| 2026-05-05 04:02 | 40.77587 | -73.87703 | 18 ft | 11 kts | 49° |
| 2026-05-05 04:03 | 40.77615 | -73.87603 | 17 ft | 12 kts | 49° |
| 2026-05-05 04:03 | 40.77695 | -73.87535 | 17 ft | 15 kts | 32° |
| 2026-05-05 04:03 | 40.77756 | -73.87431 | 17 ft | 14 kts | 70° |
| 2026-05-05 04:03 | 40.77772 | -73.87305 | 17 ft | 14 kts | 95° |
| 2026-05-05 04:04 | 40.77737 | -73.87191 | 17 ft | 13 kts | 121° |
| 2026-05-05 04:04 | 40.77689 | -73.87091 | 17 ft | 13 kts | 122° |
| 2026-05-05 04:04 | 40.77643 | -73.86994 | 16 ft | 12 kts | 122° |
| 2026-05-05 04:04 | 40.77597 | -73.86899 | 17 ft | 12 kts | 122° |
| 2026-05-05 04:05 | 40.77552 | -73.86807 | 16 ft | 12 kts | 123° |
| 2026-05-05 04:05 | 40.77507 | -73.86727 | 16 ft | 10 kts | 127° |
| 2026-05-05 04:05 | 40.77457 | -73.86679 | 16 ft | 9 kts | 185° |
| 2026-05-05 04:05 | 40.77428 | -73.86718 | 16 ft | 6 kts | 252° |
| 2026-05-05 04:06 | 40.77414 | -73.86765 | 18 ft | 5 kts | 243° |
| 2026-05-05 04:06 | 40.77398 | -73.86805 | 18 ft | 4 kts | 242° |
| 2026-05-05 04:06 | 40.77393 | -73.86817 | 17 ft | 0 kts | 242° |